Pietro Novelli — IOTQ — position and weather

sailwx.info

Track history (hours):
 
Tides and Currents Weather Stations Pressure Air Temp Water Temp Dewpoint Dewpoint Depression Visibility Wind Speed Wind Dir Waves Ship Positions

Pietro Novelli

Last reported at 2015-Jan-27 18:30 UTC. Time now 2015-Jan-27 18:57 UTC.
Position N 38°01' E 012°30'.

Length 91 m; draft 3.7 m.

Type: Ship. MMSI: 247000300.

Date/timePositionNaut miles runAvg speedWind from/ knotsBaromVisibWave heightAir tempDewpointWater temp
2015-Jan-27 18:30N 38°01' E 012°30'0 0.0
2015-Jan-27 17:30N 38°01' E 012°30'0 0.0
2015-Jan-27 16:30N 38°01' E 012°30'0 0.0
2015-Jan-27 15:18N 38°01' E 012°30'0 0.0
2015-Jan-27 14:22N 38°01' E 012°30'0 0.0
2015-Jan-27 13:28N 38°01' E 012°30'0 0.0
2015-Jan-27 12:25N 38°01' E 012°30'0 0.0
2015-Jan-27 11:31N 38°01' E 012°30'0 0.0
2015-Jan-27 10:31N 38°01' E 012°30'0 0.0
2015-Jan-27 09:17N 38°01' E 012°30'0 0.0
2015-Jan-27 08:31N 38°01' E 012°30'0 0.0
2015-Jan-27 07:31N 38°01' E 012°30'0 0.0
2015-Jan-27 06:31N 38°01' E 012°30'0 0.0
2015-Jan-27 05:23N 38°01' E 012°30'0 0.0
2015-Jan-27 04:31N 38°01' E 012°30'0 0.0
2015-Jan-27 03:23N 38°01' E 012°30'0 0.0
2015-Jan-27 02:25N 38°01' E 012°30'0 0.0
2015-Jan-27 01:25N 38°01' E 012°30'0 0.0
2015-Jan-27 00:29N 38°01' E 012°30'0 0.0
2015-Jan-26 23:29N 38°01' E 012°30'0 0.0
2015-Jan-26 22:32N 38°01' E 012°30'0 0.0
2015-Jan-26 21:29N 38°01' E 012°30'0 0.0
2015-Jan-26 20:32N 38°01' E 012°30'0 0.0
2015-Jan-26 19:29N 38°01' E 012°30'0 0.0
2015-Jan-26 18:32N 38°01' E 012°30'0 0.0
2015-Jan-26 17:32N 38°01' E 012°30'0 0.0
2015-Jan-26 16:32N 38°01' E 012°30'0 0.0
2015-Jan-26 15:32N 38°01' E 012°30'3 3.2
2015-Jan-26 14:33N 37°59' E 012°27'1211.7
2015-Jan-26 13:33N 37°50' E 012°18'1 0.1
2015-Jan-25 23:33N 37°48' E 012°18'1111.0
2015-Jan-25 22:33N 37°58' E 012°26'5 0.1
2015-Jan-24 02:25N 38°01' E 012°30'0 0.0
2015-Jan-24 01:25N 38°01' E 012°30'0 0.0
2015-Jan-24 00:25N 38°01' E 012°30'0 0.0
2015-Jan-23 23:25N 38°01' E 012°30'0 0.0
2015-Jan-23 22:19N 38°01' E 012°30'0 0.0
2015-Jan-23 20:19N 38°01' E 012°30'0 0.0
2015-Jan-23 19:31N 38°01' E 012°30'0 0.0
2015-Jan-23 17:19N 38°01' E 012°30'0 0.0
2015-Jan-23 16:25N 38°01' E 012°30'0 0.0
2015-Jan-23 15:25N 38°01' E 012°30'0 0.0
2015-Jan-23 04:30N 38°01' E 012°30'0 0.0
2015-Jan-23 03:24N 38°01' E 012°30'0 0.0
2015-Jan-23 02:06N 38°01' E 012°30'0 0.0
2015-Jan-23 01:24N 38°01' E 012°30'0 0.0
2015-Jan-23 00:30N 38°01' E 012°30'0 0.0
2015-Jan-22 23:30N 38°01' E 012°30'0 0.0
2015-Jan-22 22:30N 38°01' E 012°30'0 0.0
2015-Jan-22 21:30N 38°01' E 012°30'0 0.0
2015-Jan-22 20:33N 38°01' E 012°30'0 0.0
2015-Jan-22 19:33N 38°01' E 012°30'0 0.0
2015-Jan-22 18:33N 38°01' E 012°30'0 0.0
2015-Jan-22 17:33N 38°01' E 012°30'0 0.0
2015-Jan-22 16:33N 38°01' E 012°30'0 0.0
2015-Jan-22 15:33N 38°01' E 012°30'1 1.1
2015-Jan-22 14:33N 37°60' E 012°29'1312.6
2015-Jan-22 13:33N 37°50' E 012°20'2 0.2
2015-Jan-21 23:30N 37°47' E 012°20'711.0
2015-Jan-21 22:50N 37°54' E 012°23'111.7
2015-Jan-21 22:46N 37°55' E 012°23'211.3
2015-Jan-21 22:33N 37°57' E 012°25'6 5.7
2015-Jan-21 21:33N 38°01' E 012°30'0 0.0
2015-Jan-21 20:33N 38°01' E 012°30'0 0.0
2015-Jan-21 19:33N 38°01' E 012°30'0 0.0
2015-Jan-21 18:33N 38°01' E 012°30'0 0.0
2015-Jan-21 17:33N 38°01' E 012°30'0 0.0
2015-Jan-21 16:33N 38°01' E 012°30'0 0.0
2015-Jan-21 15:33N 38°01' E 012°30'1 1.2
2015-Jan-21 14:33N 37°60' E 012°29'1010.5
2015-Jan-21 13:34N 37°52' E 012°21'6 0.4
2015-Jan-20 23:29N 37°46' E 012°20'1112.1
2015-Jan-20 22:33N 37°56' E 012°25'6 5.8
2015-Jan-20 21:31N 38°01' E 012°30'0 0.0
2015-Jan-20 20:25N 38°01' E 012°30'0 0.0
2015-Jan-20 19:25N 38°01' E 012°30'0 0.0
2015-Jan-20 18:28N 38°01' E 012°30'0 0.0
2015-Jan-20 17:25N 38°01' E 012°30'0 0.0
2015-Jan-20 16:30N 38°01' E 012°30'0 0.0
2015-Jan-20 15:33N 38°01' E 012°30'1 1.4
2015-Jan-20 14:33N 37°60' E 012°29'10 9.7
2015-Jan-20 13:33N 37°52' E 012°21'1514.2
2015-Jan-20 12:31N 37°38' E 012°16'10 0.8
2015-Jan-19 23:27N 37°48' E 012°20'1011.1
2015-Jan-19 22:33N 37°57' E 012°25'6 5.9
2015-Jan-19 21:33N 38°01' E 012°30'0 0.0
2015-Jan-19 20:33N 38°01' E 012°30'0 0.0
2015-Jan-19 19:33N 38°01' E 012°30'0 0.0
2015-Jan-19 18:33N 38°01' E 012°30'0 0.0
2015-Jan-19 17:33N 38°01' E 012°30'0 0.0
2015-Jan-19 16:34N 38°01' E 012°30'0 0.0
2015-Jan-19 15:33N 38°01' E 012°30'2 1.7
2015-Jan-19 14:34N 37°60' E 012°29'8 8.0
2015-Jan-19 13:33N 37°54' E 012°22'1514.2
2015-Jan-19 12:29N 37°40' E 012°15'6 0.5
2015-Jan-18 23:33N 37°46' E 012°17'1212.2
2015-Jan-18 22:33N 37°56' E 012°25'7 6.4
2015-Jan-18 21:32N 38°01' E 012°30'0 0.0
2015-Jan-18 15:19N 38°01' E 012°30'0 0.0
2015-Jan-18 14:25N 38°01' E 012°30'0 0.0
2015-Jan-18 13:25N 38°01' E 012°30'0 0.0
2015-Jan-18 12:13N 38°01' E 012°30'0 0.0
2015-Jan-18 11:31N 38°01' E 012°30'0 0.0
2015-Jan-18 10:28N 38°01' E 012°30'0 0.0
2015-Jan-18 09:31N 38°01' E 012°30'0 0.0
2015-Jan-18 08:33N 38°01' E 012°30'0 0.0
2015-Jan-18 07:33N 38°01' E 012°30'0 0.0
2015-Jan-18 06:33N 38°01' E 012°30'0 0.0
2015-Jan-18 05:33N 38°01' E 012°30'0 0.0
2015-Jan-18 04:33N 38°01' E 012°30'0 0.0
2015-Jan-18 03:33N 38°01' E 012°30'0 0.0
2015-Jan-18 02:33N 38°01' E 012°30'0 0.0
2015-Jan-18 01:33N 38°01' E 012°30'0 0.0
2015-Jan-18 00:33N 38°01' E 012°30'0 0.0
2015-Jan-17 23:33N 38°01' E 012°30'0 0.0
2015-Jan-17 22:33N 38°01' E 012°30'0 0.0
2015-Jan-17 21:33N 38°01' E 012°30'0 0.0
2015-Jan-17 20:33N 38°01' E 012°30'0 0.0
2015-Jan-17 19:33N 38°01' E 012°30'0 0.0
2015-Jan-17 18:33N 38°01' E 012°30'  
Track history (hours):
 
Tides and Currents Weather Stations Pressure Air Temp Water Temp Dewpoint Dewpoint Depression Visibility Wind Speed Wind Dir Waves Ship Positions

Pietro Novelli

Last reported at 2015-Jan-27 18:30 UTC. Time now 2015-Jan-27 18:57 UTC.
Position N 38°01' E 012°30'.

Length 91 m; draft 3.7 m.

Type: Ship. MMSI: 247000300.

Date/timePositionNaut miles runAvg speedWind from/ knotsBaromVisibWave heightAir tempDewpointWater temp
2015-Jan-27 18:30N 38°01' E 012°30'0 0.0
2015-Jan-27 17:30N 38°01' E 012°30'0 0.0
2015-Jan-27 16:30N 38°01' E 012°30'0 0.0
2015-Jan-27 15:18N 38°01' E 012°30'0 0.0
2015-Jan-27 14:22N 38°01' E 012°30'0 0.0
2015-Jan-27 13:28N 38°01' E 012°30'0 0.0
2015-Jan-27 12:25N 38°01' E 012°30'0 0.0
2015-Jan-27 11:31N 38°01' E 012°30'0 0.0
2015-Jan-27 10:31N 38°01' E 012°30'0 0.0
2015-Jan-27 09:17N 38°01' E 012°30'0 0.0
2015-Jan-27 08:31N 38°01' E 012°30'0 0.0
2015-Jan-27 07:31N 38°01' E 012°30'0 0.0
2015-Jan-27 06:31N 38°01' E 012°30'0 0.0
2015-Jan-27 05:23N 38°01' E 012°30'0 0.0
2015-Jan-27 04:31N 38°01' E 012°30'0 0.0
2015-Jan-27 03:23N 38°01' E 012°30'0 0.0
2015-Jan-27 02:25N 38°01' E 012°30'0 0.0
2015-Jan-27 01:25N 38°01' E 012°30'0 0.0
2015-Jan-27 00:29N 38°01' E 012°30'0 0.0
2015-Jan-26 23:29N 38°01' E 012°30'0 0.0
2015-Jan-26 22:32N 38°01' E 012°30'0 0.0
2015-Jan-26 21:29N 38°01' E 012°30'0 0.0
2015-Jan-26 20:32N 38°01' E 012°30'0 0.0
2015-Jan-26 19:29N 38°01' E 012°30'0 0.0
2015-Jan-26 18:32N 38°01' E 012°30'0 0.0
2015-Jan-26 17:32N 38°01' E 012°30'0 0.0
2015-Jan-26 16:32N 38°01' E 012°30'0 0.0
2015-Jan-26 15:32N 38°01' E 012°30'3 3.2
2015-Jan-26 14:33N 37°59' E 012°27'1211.7
2015-Jan-26 13:33N 37°50' E 012°18'1 0.1
2015-Jan-25 23:33N 37°48' E 012°18'1111.0
2015-Jan-25 22:33N 37°58' E 012°26'5 0.1
2015-Jan-24 02:25N 38°01' E 012°30'0 0.0
2015-Jan-24 01:25N 38°01' E 012°30'0 0.0
2015-Jan-24 00:25N 38°01' E 012°30'0 0.0
2015-Jan-23 23:25N 38°01' E 012°30'0 0.0
2015-Jan-23 22:19N 38°01' E 012°30'0 0.0
2015-Jan-23 20:19N 38°01' E 012°30'0 0.0
2015-Jan-23 19:31N 38°01' E 012°30'0 0.0
2015-Jan-23 17:19N 38°01' E 012°30'0 0.0
2015-Jan-23 16:25N 38°01' E 012°30'0 0.0
2015-Jan-23 15:25N 38°01' E 012°30'0 0.0
2015-Jan-23 04:30N 38°01' E 012°30'0 0.0
2015-Jan-23 03:24N 38°01' E 012°30'0 0.0
2015-Jan-23 02:06N 38°01' E 012°30'0 0.0
2015-Jan-23 01:24N 38°01' E 012°30'0 0.0
2015-Jan-23 00:30N 38°01' E 012°30'0 0.0
2015-Jan-22 23:30N 38°01' E 012°30'0 0.0
2015-Jan-22 22:30N 38°01' E 012°30'0 0.0
2015-Jan-22 21:30N 38°01' E 012°30'0 0.0
2015-Jan-22 20:33N 38°01' E 012°30'0 0.0
2015-Jan-22 19:33N 38°01' E 012°30'0 0.0
2015-Jan-22 18:33N 38°01' E 012°30'0 0.0
2015-Jan-22 17:33N 38°01' E 012°30'0 0.0
2015-Jan-22 16:33N 38°01' E 012°30'0 0.0
2015-Jan-22 15:33N 38°01' E 012°30'1 1.1
2015-Jan-22 14:33N 37°60' E 012°29'1312.6
2015-Jan-22 13:33N 37°50' E 012°20'2 0.2
2015-Jan-21 23:30N 37°47' E 012°20'711.0
2015-Jan-21 22:50N 37°54' E 012°23'111.7
2015-Jan-21 22:46N 37°55' E 012°23'211.3
2015-Jan-21 22:33N 37°57' E 012°25'6 5.7
2015-Jan-21 21:33N 38°01' E 012°30'0 0.0
2015-Jan-21 20:33N 38°01' E 012°30'0 0.0
2015-Jan-21 19:33N 38°01' E 012°30'0 0.0
2015-Jan-21 18:33N 38°01' E 012°30'0 0.0
2015-Jan-21 17:33N 38°01' E 012°30'0 0.0
2015-Jan-21 16:33N 38°01' E 012°30'0 0.0
2015-Jan-21 15:33N 38°01' E 012°30'1 1.2
2015-Jan-21 14:33N 37°60' E 012°29'1010.5
2015-Jan-21 13:34N 37°52' E 012°21'6 0.4
2015-Jan-20 23:29N 37°46' E 012°20'1112.1
2015-Jan-20 22:33N 37°56' E 012°25'6 5.8
2015-Jan-20 21:31N 38°01' E 012°30'0 0.0
2015-Jan-20 20:25N 38°01' E 012°30'0 0.0
2015-Jan-20 19:25N 38°01' E 012°30'0 0.0
2015-Jan-20 18:28N 38°01' E 012°30'0 0.0
2015-Jan-20 17:25N 38°01' E 012°30'0 0.0
2015-Jan-20 16:30N 38°01' E 012°30'0 0.0
2015-Jan-20 15:33N 38°01' E 012°30'1 1.4
2015-Jan-20 14:33N 37°60' E 012°29'10 9.7
2015-Jan-20 13:33N 37°52' E 012°21'1514.2
2015-Jan-20 12:31N 37°38' E 012°16'10 0.8
2015-Jan-19 23:27N 37°48' E 012°20'1011.1
2015-Jan-19 22:33N 37°57' E 012°25'6 5.9
2015-Jan-19 21:33N 38°01' E 012°30'0 0.0
2015-Jan-19 20:33N 38°01' E 012°30'0 0.0
2015-Jan-19 19:33N 38°01' E 012°30'0 0.0
2015-Jan-19 18:33N 38°01' E 012°30'0 0.0
2015-Jan-19 17:33N 38°01' E 012°30'0 0.0
2015-Jan-19 16:34N 38°01' E 012°30'0 0.0
2015-Jan-19 15:33N 38°01' E 012°30'2 1.7
2015-Jan-19 14:34N 37°60' E 012°29'8 8.0
2015-Jan-19 13:33N 37°54' E 012°22'1514.2
2015-Jan-19 12:29N 37°40' E 012°15'6 0.5
2015-Jan-18 23:33N 37°46' E 012°17'1212.2
2015-Jan-18 22:33N 37°56' E 012°25'7 6.4
2015-Jan-18 21:32N 38°01' E 012°30'0 0.0
2015-Jan-18 15:19N 38°01' E 012°30'0 0.0
2015-Jan-18 14:25N 38°01' E 012°30'0 0.0
2015-Jan-18 13:25N 38°01' E 012°30'0 0.0
2015-Jan-18 12:13N 38°01' E 012°30'0 0.0
2015-Jan-18 11:31N 38°01' E 012°30'0 0.0
2015-Jan-18 10:28N 38°01' E 012°30'0 0.0
2015-Jan-18 09:31N 38°01' E 012°30'0 0.0
2015-Jan-18 08:33N 38°01' E 012°30'0 0.0
2015-Jan-18 07:33N 38°01' E 012°30'0 0.0
2015-Jan-18 06:33N 38°01' E 012°30'0 0.0
2015-Jan-18 05:33N 38°01' E 012°30'0 0.0
2015-Jan-18 04:33N 38°01' E 012°30'0 0.0
2015-Jan-18 03:33N 38°01' E 012°30'0 0.0
2015-Jan-18 02:33N 38°01' E 012°30'0 0.0
2015-Jan-18 01:33N 38°01' E 012°30'0 0.0
2015-Jan-18 00:33N 38°01' E 012°30'0 0.0
2015-Jan-17 23:33N 38°01' E 012°30'0 0.0
2015-Jan-17 22:33N 38°01' E 012°30'0 0.0
2015-Jan-17 21:33N 38°01' E 012°30'0 0.0
2015-Jan-17 20:33N 38°01' E 012°30'0 0.0
2015-Jan-17 19:33N 38°01' E 012°30'0 0.0
2015-Jan-17 18:33N 38°01' E 012°30'  

Dump ship's entire track history